createdAt,value
2022-12-16T00:01:23.018Z,248.07
2022-12-16T00:03:49.563Z,309.13
2022-12-16T00:06:17.280Z,217.73
2022-12-16T00:08:41.813Z,195.82
2022-12-16T00:11:06.942Z,159.18
2022-12-16T00:13:34.259Z,253.55
2022-12-16T00:15:59.873Z,188.68
2022-12-16T00:18:25.387Z,185.45
2022-12-16T00:20:51.135Z,194.38
2022-12-16T00:23:16.614Z,177.43
2022-12-16T00:25:42.701Z,160.00
2022-12-16T00:28:07.197Z,162.10
2022-12-16T00:30:35.163Z,163.25
2022-12-16T00:32:59.704Z,154.32
2022-12-16T00:35:24.023Z,174.82
2022-12-16T00:37:48.912Z,217.73
2022-12-16T00:40:13.781Z,142.18
2022-12-16T00:42:38.280Z,176.05
2022-12-16T00:45:02.894Z,132.98
2022-12-16T00:47:28.876Z,145.43
2022-12-16T00:49:53.353Z,168.10
2022-12-16T00:52:19.334Z,192.40
2022-12-16T00:54:43.679Z,175.20
2022-12-16T00:57:08.275Z,186.90
2022-12-16T00:59:32.802Z,169.75
2022-12-16T01:01:57.276Z,193.93
2022-12-16T01:04:26.732Z,199.60
2022-12-16T01:06:51.164Z,180.52
2022-12-16T01:09:16.578Z,182.07
2022-12-16T01:11:41.026Z,175.70
2022-12-16T01:14:05.339Z,150.55
2022-12-16T01:16:30.056Z,167.27
2022-12-16T01:18:56.434Z,144.90
2022-12-16T01:21:22.376Z,148.63
2022-12-16T01:23:48.491Z,142.75
2022-12-16T01:26:18.154Z,151.50
2022-12-16T01:28:42.478Z,180.80
2022-12-16T01:31:07.993Z,164.00
2022-12-16T01:33:34.568Z,144.70
2022-12-16T01:36:03.209Z,175.30
2022-12-16T01:38:29.546Z,163.30
2022-12-16T01:40:55.150Z,154.13
2022-12-16T01:43:21.565Z,119.65
2022-12-16T01:45:45.988Z,191.25
2022-12-16T01:48:21.658Z,163.60
2022-12-16T01:50:46.668Z,162.95
2022-12-16T01:53:11.327Z,160.50
2022-12-16T01:55:42.799Z,146.45
2022-12-16T01:58:10.902Z,164.48
2022-12-16T02:00:36.246Z,129.02
2022-12-16T02:03:02.025Z,147.85
2022-12-16T02:05:26.771Z,121.53
2022-12-16T02:08:01.213Z,118.97
2022-12-16T02:10:34.406Z,113.70
2022-12-16T02:13:07.135Z,147.15
2022-12-16T02:15:40.854Z,132.38
2022-12-16T02:18:15.629Z,128.15
2022-12-16T02:21:16.910Z,116.35
2022-12-16T02:24:17.953Z,129.20
2022-12-16T02:27:06.085Z,105.05
2022-12-16T02:30:05.438Z,103.22
2022-12-16T02:32:40.653Z,78.28
2022-12-16T02:35:11.322Z,91.22
2022-12-16T02:37:43.475Z,141.35
2022-12-16T02:40:16.693Z,96.50
2022-12-16T02:42:46.561Z,160.13
2022-12-16T02:45:17.231Z,91.93
2022-12-16T02:47:43.072Z,115.00
2022-12-16T02:50:16.080Z,111.03
2022-12-16T02:52:40.567Z,109.28
2022-12-16T02:55:09.302Z,120.30
2022-12-16T02:58:06.303Z,138.43
2022-12-16T03:00:37.325Z,106.72
2022-12-16T03:03:08.076Z,103.63
2022-12-16T03:05:36.399Z,113.53
2022-12-16T03:08:05.131Z,92.50
2022-12-16T03:10:33.824Z,120.30
2022-12-16T03:13:03.507Z,89.25
2022-12-16T03:15:32.244Z,106.50
2022-12-16T03:17:58.714Z,92.18
2022-12-16T03:20:29.179Z,122.22
2022-12-16T03:22:55.931Z,126.38
2022-12-16T03:25:22.453Z,134.88
2022-12-16T03:27:57.089Z,116.90
2022-12-16T03:30:26.925Z,129.10
2022-12-16T03:32:58.522Z,117.97
2022-12-16T03:35:28.608Z,85.45
2022-12-16T03:37:57.666Z,97.93
2022-12-16T03:40:23.253Z,125.72
2022-12-16T03:42:48.465Z,103.10
2022-12-16T03:45:18.133Z,116.90
2022-12-16T03:47:42.687Z,111.68
2022-12-16T03:50:09.241Z,100.78
2022-12-16T03:52:35.220Z,104.65
2022-12-16T03:54:59.913Z,105.07
2022-12-16T03:57:24.275Z,98.45
2022-12-16T03:59:48.609Z,125.80
2022-12-16T04:02:13.112Z,150.23
2022-12-16T04:04:37.667Z,139.35
2022-12-16T04:07:19.136Z,120.47
2022-12-16T04:09:45.103Z,111.97
2022-12-16T04:12:27.376Z,102.85
2022-12-16T04:15:09.346Z,115.18
2022-12-16T04:17:51.245Z,112.72
2022-12-16T04:20:34.998Z,90.13
2022-12-16T04:23:17.250Z,89.38
2022-12-16T04:25:43.196Z,92.35
2022-12-16T04:28:07.643Z,80.20
2022-12-16T04:30:35.266Z,87.30
2022-12-16T04:33:20.079Z,112.32
2022-12-16T04:36:02.145Z,155.70
2022-12-16T04:38:44.255Z,115.72
2022-12-16T04:41:27.239Z,138.45
2022-12-16T04:44:09.085Z,107.05
2022-12-16T04:46:50.958Z,145.57
2022-12-16T04:49:32.955Z,110.40
2022-12-16T04:52:14.894Z,116.53
2022-12-16T04:54:56.952Z,149.05
2022-12-16T04:57:39.834Z,141.25
2022-12-16T05:00:22.377Z,151.82
2022-12-16T05:03:18.732Z,147.13
2022-12-16T05:06:00.575Z,128.18
2022-12-16T05:08:42.442Z,153.73
2022-12-16T05:11:24.551Z,194.43
2022-12-16T05:14:07.992Z,135.02
2022-12-16T05:16:50.004Z,104.65
2022-12-16T05:19:32.091Z,106.03
2022-12-16T05:22:13.797Z,123.65
2022-12-16T05:24:55.634Z,100.18
2022-12-16T05:27:37.401Z,115.70
2022-12-16T05:30:20.906Z,105.68
2022-12-16T05:33:02.707Z,115.60
2022-12-16T05:35:44.609Z,120.32
2022-12-16T05:38:26.738Z,120.57
2022-12-16T05:41:08.538Z,79.43
2022-12-16T05:43:50.604Z,76.38
2022-12-16T05:46:33.796Z,96.35
2022-12-16T05:49:15.604Z,79.65
2022-12-16T05:51:57.436Z,83.72
2022-12-16T05:54:39.298Z,89.93
2022-12-16T05:57:20.825Z,87.13
2022-12-16T06:00:02.802Z,79.05
2022-12-16T06:02:55.344Z,81.68
2022-12-16T06:05:37.217Z,86.75
2022-12-16T06:08:19.587Z,114.57
2022-12-16T06:11:02.607Z,123.55
2022-12-16T06:13:44.684Z,101.10
2022-12-16T06:16:27.313Z,104.15
2022-12-16T06:19:10.563Z,85.43
2022-12-16T06:21:52.433Z,83.43
2022-12-16T06:24:34.560Z,75.85
2022-12-16T06:27:16.207Z,89.70
2022-12-16T06:29:58.036Z,72.97
2022-12-16T06:32:40.062Z,86.15
2022-12-16T06:35:23.922Z,78.20
2022-12-16T06:38:06.685Z,91.47
2022-12-16T06:40:48.723Z,82.45
2022-12-16T06:43:31.849Z,78.18
2022-12-16T06:46:14.200Z,84.80
2022-12-16T06:48:56.254Z,77.25
2022-12-16T06:51:39.783Z,83.85
2022-12-16T06:54:27.123Z,61.88
2022-12-16T06:57:09.235Z,77.82
2022-12-16T06:59:50.940Z,78.57
2022-12-16T07:02:32.739Z,78.35
2022-12-16T07:05:15.291Z,88.30
2022-12-16T07:07:58.223Z,81.78
2022-12-16T07:10:39.923Z,89.45
2022-12-16T07:13:22.301Z,134.65
2022-12-16T07:16:05.056Z,129.00
2022-12-16T07:18:47.228Z,115.32
2022-12-16T07:21:29.628Z,89.78
2022-12-16T07:24:12.528Z,106.40
2022-12-16T07:26:54.216Z,90.63
2022-12-16T07:29:36.446Z,101.05
2022-12-16T07:32:18.336Z,117.32
2022-12-16T07:35:00.438Z,87.22
2022-12-16T07:37:42.836Z,97.00
2022-12-16T07:40:29.309Z,119.43
2022-12-16T07:43:11.396Z,96.78
2022-12-16T07:45:53.468Z,100.28
2022-12-16T07:48:37.615Z,101.97
2022-12-16T07:51:19.744Z,122.47
2022-12-16T07:54:01.639Z,104.80
2022-12-16T07:56:45.277Z,87.68
2022-12-16T07:59:28.750Z,73.40
2022-12-16T08:02:10.844Z,73.75
2022-12-16T08:04:58.178Z,87.88
2022-12-16T08:07:40.796Z,94.85
2022-12-16T08:10:22.942Z,77.53
2022-12-16T08:13:06.786Z,72.20
2022-12-16T08:16:00.222Z,78.10
2022-12-16T08:18:42.412Z,73.43
2022-12-16T08:21:24.372Z,83.25
2022-12-16T08:24:06.434Z,90.32
2022-12-16T08:26:48.569Z,66.85
2022-12-16T08:29:44.393Z,106.70
2022-12-16T08:32:27.319Z,80.97
2022-12-16T08:35:08.984Z,73.65
2022-12-16T08:37:51.007Z,68.03
2022-12-16T08:40:35.826Z,88.18
2022-12-16T08:43:19.082Z,69.20
2022-12-16T08:46:02.513Z,70.68
2022-12-16T08:48:53.708Z,72.25
2022-12-16T08:51:36.076Z,75.25
2022-12-16T08:54:18.480Z,78.97
2022-12-16T08:57:01.274Z,75.50
2022-12-16T08:59:43.270Z,73.18
2022-12-16T09:02:28.147Z,64.47
2022-12-16T09:05:10.423Z,62.05
2022-12-16T09:07:52.799Z,70.13
2022-12-16T09:10:40.425Z,61.70
2022-12-16T09:13:28.129Z,58.47
2022-12-16T09:16:14.434Z,65.15
2022-12-16T09:19:01.399Z,62.13
2022-12-16T09:21:43.555Z,67.10
2022-12-16T09:24:26.020Z,74.57
2022-12-16T09:27:10.432Z,57.58
2022-12-16T09:29:52.219Z,67.50
2022-12-16T09:32:34.069Z,67.63
2022-12-16T09:35:17.304Z,69.78
2022-12-16T09:38:06.373Z,62.42
2022-12-16T09:40:48.471Z,59.15
2022-12-16T09:43:43.676Z,70.25
2022-12-16T09:46:33.945Z,74.65
2022-12-16T09:49:22.321Z,55.53
2022-12-16T09:52:06.752Z,50.58
2022-12-16T09:54:59.196Z,46.60
2022-12-16T09:57:45.276Z,50.00
2022-12-16T10:00:50.673Z,52.83
2022-12-16T10:03:40.195Z,52.85
2022-12-16T10:06:30.139Z,46.05
2022-12-16T10:09:21.082Z,54.70
2022-12-16T10:12:16.660Z,51.92
2022-12-16T10:15:08.532Z,59.40
2022-12-16T10:17:50.872Z,54.17
2022-12-16T10:20:38.688Z,57.17
2022-12-16T10:23:29.842Z,57.75
2022-12-16T10:26:21.440Z,57.00
2022-12-16T10:29:05.946Z,69.82
2022-12-16T10:31:48.558Z,57.20
2022-12-16T10:34:33.453Z,56.45
2022-12-16T10:37:20.617Z,58.22
2022-12-16T10:40:22.277Z,58.10
2022-12-16T10:43:10.504Z,53.35
2022-12-16T10:45:56.789Z,52.65
2022-12-16T10:48:55.021Z,50.90
2022-12-16T10:51:50.375Z,55.38
2022-12-16T10:54:48.402Z,56.38
2022-12-16T10:57:37.829Z,51.58
2022-12-16T11:00:33.541Z,57.45
2022-12-16T11:03:15.829Z,51.33
2022-12-16T11:05:58.221Z,54.33
2022-12-16T11:08:46.128Z,55.15
2022-12-16T11:11:33.898Z,61.55
2022-12-16T11:14:34.516Z,58.85
2022-12-16T11:17:50.669Z,50.95
2022-12-16T11:20:36.306Z,55.75
2022-12-16T11:23:35.478Z,66.20
2022-12-16T11:26:37.362Z,60.00
2022-12-16T11:29:33.510Z,58.17
2022-12-16T11:32:38.127Z,54.75
2022-12-16T11:35:23.464Z,59.78
2022-12-16T11:38:08.149Z,58.28
2022-12-16T11:40:52.583Z,55.92
2022-12-16T11:43:36.846Z,53.17
2022-12-16T11:46:24.052Z,53.20
2022-12-16T11:49:11.310Z,57.63
2022-12-16T11:52:08.055Z,52.53
2022-12-16T11:55:02.297Z,55.15
2022-12-16T11:57:54.836Z,49.75
2022-12-16T12:00:37.816Z,54.20
2022-12-16T12:03:25.541Z,54.67
2022-12-16T12:06:19.639Z,56.45
2022-12-16T12:09:12.284Z,52.42
2022-12-16T12:11:57.346Z,53.53
2022-12-16T12:14:53.881Z,57.95
2022-12-16T12:18:02.675Z,59.95
2022-12-16T12:21:02.036Z,60.33
2022-12-16T12:23:57.942Z,56.42
2022-12-16T12:26:48.297Z,58.72
2022-12-16T12:29:37.304Z,60.25
2022-12-16T12:32:26.434Z,67.38
2022-12-16T12:35:15.769Z,70.87
2022-12-16T12:38:10.122Z,63.22
2022-12-16T12:41:10.657Z,67.63
2022-12-16T12:46:47.671Z,68.28
2022-12-16T12:49:38.555Z,68.38
2022-12-16T12:52:30.137Z,84.22
2022-12-16T12:55:19.463Z,77.72
2022-12-16T12:58:05.593Z,72.15
2022-12-16T13:00:52.124Z,67.72
2022-12-16T13:03:44.031Z,61.85
2022-12-16T13:06:26.958Z,64.00
2022-12-16T13:09:16.943Z,65.25
2022-12-16T13:12:19.183Z,67.20
2022-12-16T13:15:22.469Z,71.25
2022-12-16T13:18:49.166Z,72.90
2022-12-16T13:22:02.863Z,71.70
2022-12-16T13:25:00.818Z,67.63
2022-12-16T13:27:44.604Z,64.82
2022-12-16T13:30:42.117Z,67.78
2022-12-16T13:33:27.355Z,76.72
2022-12-16T13:36:13.905Z,71.00
2022-12-16T13:39:03.185Z,80.43
2022-12-16T13:42:07.367Z,79.65
2022-12-16T13:45:17.191Z,81.78
2022-12-16T13:48:19.198Z,77.00
2022-12-16T13:51:19.078Z,79.88
2022-12-16T13:54:06.017Z,79.82
2022-12-16T13:56:53.408Z,75.47
2022-12-16T13:59:42.674Z,68.90
2022-12-16T14:02:46.196Z,75.07
2022-12-16T14:05:44.386Z,71.63
2022-12-16T14:08:34.541Z,82.65
2022-12-16T14:11:20.491Z,76.72
2022-12-16T14:14:11.361Z,71.80
2022-12-16T14:17:02.685Z,81.60
2022-12-16T14:19:52.786Z,80.68
2022-12-16T14:22:47.921Z,77.45
2022-12-16T14:25:35.596Z,73.80
2022-12-16T14:28:17.455Z,73.90
2022-12-16T14:31:00.087Z,83.63
2022-12-16T14:33:44.008Z,78.85
2022-12-16T14:36:38.908Z,87.10
2022-12-16T14:39:29.211Z,82.13
2022-12-16T14:42:11.740Z,88.30
2022-12-16T14:44:54.206Z,98.30
2022-12-16T14:47:41.561Z,94.07
2022-12-16T14:50:37.975Z,104.75
2022-12-16T14:53:32.681Z,103.95
2022-12-16T14:56:38.637Z,96.85
2022-12-16T14:59:38.761Z,108.18
2022-12-16T15:05:12.822Z,104.57
2022-12-16T15:07:57.178Z,110.18
2022-12-16T15:10:42.953Z,113.28
2022-12-16T15:13:33.550Z,117.38
2022-12-16T15:16:16.279Z,106.75
2022-12-16T15:19:02.238Z,113.13
2022-12-16T15:21:44.426Z,118.18
2022-12-16T15:24:27.978Z,109.75
2022-12-16T15:27:30.060Z,110.13
2022-12-16T15:30:13.807Z,102.80
2022-12-16T15:32:55.794Z,101.55
2022-12-16T15:35:49.322Z,95.32
2022-12-16T15:38:36.136Z,97.10
2022-12-16T15:41:19.250Z,104.57
2022-12-16T15:44:01.461Z,95.90
2022-12-16T15:46:48.634Z,94.93
2022-12-16T15:49:38.294Z,100.65
2022-12-16T15:52:20.557Z,97.80
2022-12-16T15:55:09.307Z,99.80
2022-12-16T15:57:53.453Z,105.45
2022-12-16T16:00:41.853Z,91.80
2022-12-16T16:03:37.545Z,104.80
2022-12-16T16:06:19.869Z,104.32
2022-12-16T16:09:01.685Z,103.10
2022-12-16T16:11:43.583Z,97.57
2022-12-16T16:14:25.982Z,104.75
2022-12-16T16:17:07.851Z,98.82
2022-12-16T16:19:51.641Z,105.85
2022-12-16T16:22:37.090Z,111.65
2022-12-16T16:25:19.468Z,121.63
2022-12-16T16:28:01.842Z,121.40
2022-12-16T16:30:43.925Z,130.98
2022-12-16T16:33:25.798Z,123.80
2022-12-16T16:36:08.862Z,123.63
2022-12-16T16:38:50.841Z,141.07
2022-12-16T16:41:35.413Z,129.95
2022-12-16T16:44:19.777Z,131.02
2022-12-16T16:47:02.809Z,131.55
2022-12-16T16:49:49.430Z,135.98
2022-12-16T16:52:35.030Z,143.02
2022-12-16T16:55:17.055Z,159.35
2022-12-16T16:57:58.723Z,171.50
2022-12-16T17:00:40.856Z,143.32
2022-12-16T17:03:23.337Z,132.00
2022-12-16T17:06:05.143Z,145.75
2022-12-16T17:08:48.930Z,110.57
2022-12-16T17:11:36.651Z,112.63
2022-12-16T17:14:30.223Z,111.80
2022-12-16T17:17:12.323Z,118.32
2022-12-16T17:19:54.911Z,115.90
2022-12-16T17:22:37.071Z,110.45
2022-12-16T17:25:20.196Z,116.30
2022-12-16T17:28:03.760Z,110.30
2022-12-16T17:30:47.924Z,107.47
2022-12-16T17:33:30.051Z,113.97
2022-12-16T17:36:12.106Z,117.32
2022-12-16T17:38:57.358Z,110.32
2022-12-16T17:41:41.609Z,104.55
2022-12-16T17:44:23.622Z,108.50
2022-12-16T17:47:06.196Z,110.25
2022-12-16T17:49:48.835Z,103.25
2022-12-16T17:52:30.979Z,113.55
2022-12-16T17:55:12.768Z,104.22
2022-12-16T17:57:55.701Z,109.00
2022-12-16T18:00:37.753Z,96.82
2022-12-16T18:03:19.978Z,120.25
2022-12-16T18:06:02.504Z,132.32
2022-12-16T18:08:50.252Z,131.25
2022-12-16T18:11:37.131Z,128.77
2022-12-16T18:14:22.243Z,137.55
2022-12-16T18:17:04.177Z,141.73
2022-12-16T18:19:46.028Z,142.30
2022-12-16T18:22:27.968Z,142.82
2022-12-16T18:25:10.306Z,139.45
2022-12-16T18:27:52.580Z,136.75
2022-12-16T18:30:36.281Z,126.78
2022-12-16T18:33:18.626Z,142.55
2022-12-16T18:36:01.099Z,116.72
2022-12-16T18:38:44.147Z,123.05
2022-12-16T18:41:33.366Z,159.05
2022-12-16T18:44:15.483Z,117.93
2022-12-16T18:46:59.163Z,127.07
2022-12-16T18:49:41.563Z,129.10
2022-12-16T18:52:23.622Z,125.72
2022-12-16T18:55:05.787Z,137.27
2022-12-16T18:57:47.840Z,150.73
2022-12-16T19:00:31.110Z,148.98
2022-12-16T19:03:14.543Z,135.57
2022-12-16T19:05:56.433Z,127.47
2022-12-16T19:08:38.717Z,128.48
2022-12-16T19:11:20.549Z,141.10
2022-12-16T19:14:02.621Z,144.00
2022-12-16T19:16:45.256Z,136.27
2022-12-16T19:19:28.523Z,140.65
2022-12-16T19:22:11.011Z,135.02
2022-12-16T19:24:58.331Z,160.50
2022-12-16T19:27:40.273Z,139.77
2022-12-16T19:30:21.574Z,127.72
2022-12-16T19:33:07.424Z,130.57
2022-12-16T19:35:53.676Z,122.40
2022-12-16T19:38:35.457Z,122.15
2022-12-16T19:41:17.390Z,128.90
2022-12-16T19:44:05.333Z,129.75
2022-12-16T19:46:48.514Z,125.82
2022-12-16T19:49:30.681Z,130.30
2022-12-16T19:52:25.637Z,123.10
2022-12-16T19:55:07.441Z,118.53
2022-12-16T19:57:50.085Z,138.57
2022-12-16T20:00:37.889Z,136.52
2022-12-16T20:03:20.258Z,157.68
2022-12-16T20:06:02.330Z,146.43
2022-12-16T20:08:47.134Z,123.03
2022-12-16T20:11:28.950Z,124.65
2022-12-16T20:14:12.242Z,118.65
2022-12-16T20:16:54.501Z,124.47
2022-12-16T20:19:38.646Z,110.25
2022-12-16T20:22:28.908Z,110.90
2022-12-16T20:25:12.331Z,117.13
2022-12-16T20:27:54.351Z,112.25
2022-12-16T20:30:39.151Z,116.25
2022-12-16T20:33:21.693Z,116.85
2022-12-16T20:36:14.120Z,118.45
2022-12-16T20:38:56.060Z,111.93
2022-12-16T20:41:39.725Z,111.32
2022-12-16T20:44:27.068Z,114.82
2022-12-16T20:47:08.740Z,114.55
2022-12-16T20:49:51.324Z,120.53
2022-12-16T20:52:33.985Z,108.05
2022-12-16T20:55:15.716Z,112.97
2022-12-16T20:57:58.821Z,116.38
2022-12-16T21:00:40.523Z,105.32
2022-12-16T21:03:26.206Z,108.25
2022-12-16T21:06:07.772Z,106.97
2022-12-16T21:08:50.126Z,116.43
2022-12-16T21:11:32.592Z,111.47
2022-12-16T21:14:16.144Z,105.03
2022-12-16T21:16:59.324Z,102.78
2022-12-16T21:19:38.334Z,99.82
2022-12-16T21:22:20.036Z,104.68
2022-12-16T21:25:02.280Z,99.93
2022-12-16T21:27:44.578Z,91.80
2022-12-16T21:30:29.403Z,100.68
2022-12-16T21:33:11.436Z,95.72
2022-12-16T21:35:53.003Z,92.00
2022-12-16T21:38:46.485Z,93.55
2022-12-16T21:41:28.449Z,86.50
2022-12-16T21:44:10.281Z,90.38
2022-12-16T21:47:05.228Z,95.60
2022-12-16T21:49:47.129Z,90.53
2022-12-16T21:52:28.740Z,86.75
2022-12-16T21:55:10.900Z,88.45
2022-12-16T21:57:53.356Z,93.70
2022-12-16T22:00:35.901Z,86.85
2022-12-16T22:03:19.522Z,91.53
2022-12-16T22:06:01.162Z,98.70
2022-12-16T22:08:43.305Z,92.45
2022-12-16T22:11:28.278Z,98.28
2022-12-16T22:14:09.793Z,94.47
2022-12-16T22:16:51.768Z,108.00
2022-12-16T22:19:34.994Z,103.40
2022-12-16T22:22:21.943Z,114.97
2022-12-16T22:25:04.878Z,106.35
2022-12-16T22:27:45.398Z,111.20
2022-12-16T22:30:28.401Z,118.32
2022-12-16T22:33:10.453Z,115.93
2022-12-16T22:35:54.260Z,124.72
2022-12-16T22:38:37.422Z,113.85
2022-12-16T22:41:20.156Z,112.30
2022-12-16T22:44:02.094Z,112.43
2022-12-16T22:46:44.249Z,107.20
2022-12-16T22:49:26.307Z,107.28
2022-12-16T22:52:09.598Z,108.32
2022-12-16T22:54:51.479Z,102.68
2022-12-16T22:57:35.166Z,107.40
2022-12-16T23:00:17.060Z,107.07
2022-12-16T23:02:59.241Z,98.15
2022-12-16T23:05:41.209Z,95.53
2022-12-16T23:08:25.054Z,103.63
2022-12-16T23:11:13.054Z,109.13
2022-12-16T23:14:03.288Z,90.50
2022-12-16T23:16:45.510Z,99.63
2022-12-16T23:19:27.405Z,97.95
2022-12-16T23:22:09.203Z,99.13
2022-12-16T23:24:53.349Z,98.30
2022-12-16T23:27:35.594Z,101.43
2022-12-16T23:30:17.619Z,89.53
2022-12-16T23:33:01.585Z,89.30
2022-12-16T23:35:43.729Z,95.93
2022-12-16T23:38:26.120Z,87.60
2022-12-16T23:41:14.428Z,87.63
2022-12-16T23:43:56.313Z,88.63
2022-12-16T23:46:38.438Z,92.78
2022-12-16T23:49:20.702Z,87.78
2022-12-16T23:52:02.497Z,90.40
2022-12-16T23:54:44.424Z,87.60
2022-12-16T23:57:27.470Z,88.70
